createdAt,value
2019-03-11T00:04:11.955Z,24.90
2019-03-11T00:09:00.409Z,24.60
2019-03-11T00:13:51.813Z,23.40
2019-03-11T00:18:43.270Z,24.40
2019-03-11T00:23:34.583Z,23.70
2019-03-11T00:28:26.021Z,21.80
2019-03-11T00:33:17.426Z,21.70
2019-03-11T00:38:13.303Z,22.60
2019-03-11T00:43:04.789Z,21.90
2019-03-11T00:48:02.995Z,22.00
2019-03-11T00:52:47.796Z,22.60
2019-03-11T00:57:38.961Z,23.30
2019-03-11T01:02:30.380Z,22.80
2019-03-11T01:07:21.785Z,22.10
2019-03-11T01:12:13.133Z,22.80
2019-03-11T01:17:06.824Z,23.20
2019-03-11T01:21:58.281Z,22.80
2019-03-11T01:26:49.678Z,23.10
2019-03-11T01:31:41.123Z,23.00
2019-03-11T01:36:32.425Z,23.30
2019-03-11T01:41:23.836Z,23.70
2019-03-11T01:46:15.218Z,23.00
2019-03-11T01:51:06.658Z,23.10
2019-03-11T01:55:58.005Z,22.90
2019-03-11T02:00:49.482Z,23.40
2019-03-11T02:05:40.832Z,24.50
2019-03-11T02:10:32.226Z,24.10
2019-03-11T02:15:23.627Z,24.30
2019-03-11T02:20:15.009Z,25.00
2019-03-11T02:25:06.402Z,25.10
2019-03-11T02:29:57.799Z,25.70
2019-03-11T02:34:51.428Z,25.30
2019-03-11T02:39:45.130Z,25.50
2019-03-11T02:44:36.595Z,26.00
2019-03-11T02:49:27.957Z,25.70
2019-03-11T02:54:19.373Z,26.10
2019-03-11T02:59:10.791Z,26.50
2019-03-11T03:04:04.431Z,26.00
2019-03-11T03:08:55.867Z,25.80
2019-03-11T03:13:47.317Z,25.90
2019-03-11T03:18:38.694Z,30.10
2019-03-11T03:23:30.117Z,28.80
2019-03-11T03:28:21.497Z,29.70
2019-03-11T03:33:12.899Z,32.50
2019-03-11T03:42:58.389Z,31.80
2019-03-11T03:47:49.328Z,32.60
2019-03-11T03:52:40.655Z,40.50
2019-03-11T03:57:32.052Z,41.50
2019-03-11T04:02:23.417Z,42.30
2019-03-11T04:07:14.820Z,41.80
2019-03-11T04:12:06.221Z,41.70
2019-03-11T04:16:57.622Z,42.30
2019-03-11T04:21:49.017Z,42.60
2019-03-11T04:26:40.439Z,45.40
2019-03-11T04:31:31.845Z,46.10
2019-03-11T04:36:23.230Z,50.30
2019-03-11T04:41:14.580Z,49.30
2019-03-11T04:46:10.864Z,51.10
2019-03-11T04:51:02.248Z,49.50
2019-03-11T04:55:53.640Z,48.50
2019-03-11T05:00:45.067Z,49.40
2019-03-11T05:05:36.432Z,48.50
2019-03-11T05:10:27.827Z,48.10
2019-03-11T05:15:19.214Z,48.60
2019-03-11T05:20:10.657Z,47.20
2019-03-11T05:25:02.358Z,44.60
2019-03-11T05:29:53.505Z,45.00
2019-03-11T05:34:44.926Z,40.20
2019-03-11T05:39:38.587Z,38.70
2019-03-11T05:44:29.990Z,36.80
2019-03-11T05:49:21.356Z,36.00
2019-03-11T05:54:12.801Z,35.30
2019-03-11T05:59:06.375Z,35.80
2019-03-11T06:04:00.138Z,35.20
2019-03-11T06:08:53.777Z,36.40
2019-03-11T06:13:45.273Z,35.60
2019-03-11T06:18:47.955Z,37.00
2019-03-11T06:23:41.646Z,35.10
2019-03-11T06:28:33.097Z,34.70
2019-03-11T06:33:26.846Z,35.90
2019-03-11T06:38:18.243Z,36.10
2019-03-11T06:43:09.657Z,35.80
2019-03-11T06:48:03.283Z,34.20
2019-03-11T06:52:54.783Z,34.80
2019-03-11T06:57:48.329Z,34.70
2019-03-11T07:02:39.763Z,34.50
2019-03-11T07:07:31.085Z,32.60
2019-03-11T07:12:22.514Z,31.10
2019-03-11T07:17:16.127Z,31.10
2019-03-11T07:22:07.670Z,30.20
2019-03-11T07:26:58.936Z,29.20
2019-03-11T07:31:50.356Z,29.70
2019-03-11T07:36:41.773Z,29.10
2019-03-11T07:41:33.186Z,28.50
2019-03-11T07:46:24.493Z,27.20
2019-03-11T07:51:18.182Z,29.00
2019-03-11T07:56:09.579Z,31.30
2019-03-11T08:01:01.047Z,32.70
2019-03-11T08:05:52.376Z,41.80
2019-03-11T08:10:43.823Z,65.70
2019-03-11T08:15:35.133Z,72.10
2019-03-11T08:20:28.774Z,88.00
2019-03-11T08:25:20.202Z,86.40
2019-03-11T08:30:11.606Z,91.50
2019-03-11T08:35:03.002Z,89.60
2019-03-11T08:39:54.378Z,89.30
2019-03-11T08:44:45.718Z,75.10
2019-03-11T08:49:37.105Z,69.00
2019-03-11T08:54:28.488Z,59.00
2019-03-11T08:59:22.134Z,51.40
2019-03-11T09:04:13.539Z,49.70
2019-03-11T09:09:06.028Z,42.60
2019-03-11T09:13:58.561Z,42.20
2019-03-11T09:18:49.993Z,38.90
2019-03-11T09:23:41.374Z,38.50
2019-03-11T09:28:33.007Z,37.30
2019-03-11T09:33:24.213Z,36.50
2019-03-11T09:38:15.588Z,34.70
2019-03-11T09:43:07.161Z,34.00
2019-03-11T09:47:58.339Z,32.10
2019-03-11T09:52:49.714Z,32.90
2019-03-11T09:57:41.123Z,30.30
2019-03-11T10:02:32.470Z,27.50
2019-03-11T10:07:23.866Z,28.10
2019-03-11T10:12:15.253Z,29.30
2019-03-11T10:17:06.649Z,24.40
2019-03-11T10:21:58.019Z,23.80
2019-03-11T10:26:49.404Z,23.60
2019-03-11T10:31:40.831Z,21.70
2019-03-11T10:36:34.659Z,23.60
2019-03-11T10:41:25.833Z,22.90
2019-03-11T10:46:17.195Z,22.50
2019-03-11T10:51:08.640Z,23.10
2019-03-11T10:56:00.539Z,22.40
2019-03-11T11:00:51.377Z,19.80
2019-03-11T11:05:42.783Z,21.40
2019-03-11T11:10:34.161Z,19.30
2019-03-11T11:15:25.587Z,19.30
2019-03-11T11:20:19.163Z,23.00
2019-03-11T11:25:13.001Z,22.60
2019-03-11T11:30:04.415Z,19.70
2019-03-11T11:34:55.847Z,20.30
2019-03-11T11:39:47.259Z,19.60
2019-03-11T11:44:38.631Z,21.40
2019-03-11T11:49:30.031Z,20.60
2019-03-11T11:54:21.401Z,21.50
2019-03-11T11:59:12.792Z,21.90
2019-03-11T12:04:04.194Z,22.90
2019-03-11T12:08:55.634Z,22.70
2019-03-11T12:13:46.975Z,23.70
2019-03-11T12:18:38.442Z,23.80
2019-03-11T12:23:29.837Z,25.50
2019-03-11T12:28:21.215Z,22.60
2019-03-11T12:33:12.680Z,20.30
2019-03-11T12:38:03.986Z,23.30
2019-03-11T12:42:55.425Z,23.60
2019-03-11T12:47:46.928Z,24.10
2019-03-11T12:52:38.249Z,23.20
2019-03-11T12:57:29.594Z,24.80
2019-03-11T13:02:21.025Z,22.40
2019-03-11T13:07:12.389Z,21.10
2019-03-11T13:12:03.957Z,18.20
2019-03-11T13:16:55.392Z,19.90
2019-03-11T13:21:46.747Z,18.30
2019-03-11T13:26:38.123Z,17.90
2019-03-11T13:31:29.586Z,18.00
2019-03-11T13:36:20.978Z,20.00
2019-03-11T13:41:12.361Z,19.60
2019-03-11T13:46:03.690Z,20.20
2019-03-11T13:50:55.123Z,21.10
2019-03-11T13:55:47.297Z,20.20
2019-03-11T14:00:37.919Z,19.50
2019-03-11T14:05:29.348Z,20.20
2019-03-11T14:10:20.697Z,20.60
2019-03-11T14:15:12.170Z,22.70
2019-03-11T14:20:03.532Z,20.40
2019-03-11T14:24:54.897Z,20.20
2019-03-11T14:29:46.358Z,21.80
2019-03-11T14:34:37.906Z,21.00
2019-03-11T14:39:29.213Z,20.70
2019-03-11T14:44:20.623Z,20.70
2019-03-11T14:49:12.024Z,21.90
2019-03-11T14:54:03.428Z,23.00
2019-03-11T14:58:54.802Z,21.70
2019-03-11T15:03:46.260Z,21.70
2019-03-11T15:08:37.625Z,21.00
2019-03-11T15:13:29.029Z,19.50
2019-03-11T15:18:20.474Z,18.70
2019-03-11T15:23:21.363Z,17.90
2019-03-11T15:28:05.525Z,17.70
2019-03-11T15:32:56.921Z,17.80
2019-03-11T15:37:48.321Z,18.80
2019-03-11T15:42:39.778Z,17.30
2019-03-11T15:47:31.232Z,17.70
2019-03-11T15:52:22.601Z,18.60
2019-03-11T15:57:13.954Z,21.40
2019-03-11T16:02:05.380Z,33.90
2019-03-11T16:06:56.853Z,39.50
2019-03-11T16:11:48.190Z,44.60
2019-03-11T16:16:39.862Z,45.30
2019-03-11T16:21:31.127Z,46.10
2019-03-11T16:26:22.467Z,45.20
2019-03-11T16:31:17.059Z,47.50
2019-03-11T16:36:07.547Z,47.30
2019-03-11T16:40:58.988Z,39.80
2019-03-11T16:45:50.307Z,33.00
2019-03-11T16:50:41.693Z,30.60
2019-03-11T16:55:33.064Z,28.00
2019-03-11T17:00:24.462Z,30.50
2019-03-11T17:05:15.850Z,29.30
2019-03-11T17:10:07.272Z,27.50
2019-03-11T17:14:58.736Z,28.90
2019-03-11T17:19:50.067Z,28.00
2019-03-11T17:24:41.498Z,27.90
2019-03-11T17:29:32.917Z,27.00
2019-03-11T17:34:24.297Z,27.50
2019-03-11T17:39:17.882Z,27.10
2019-03-11T17:44:11.605Z,26.70
2019-03-11T17:49:03.102Z,27.40
2019-03-11T17:53:56.667Z,28.80
2019-03-11T17:58:48.095Z,26.80
2019-03-11T18:03:39.540Z,26.10
2019-03-11T18:08:30.860Z,26.90
2019-03-11T18:13:22.324Z,26.90
2019-03-11T18:18:13.827Z,26.60
2019-03-11T18:23:05.141Z,28.30
2019-03-11T18:27:56.569Z,26.20
2019-03-11T18:37:46.204Z,25.20
2019-03-11T18:42:37.596Z,25.00
2019-03-11T18:47:29.053Z,25.70
2019-03-11T18:52:20.444Z,25.50
2019-03-11T18:57:12.101Z,26.70
2019-03-11T19:02:03.306Z,25.60
2019-03-11T19:06:56.877Z,25.00
2019-03-11T19:11:48.654Z,24.20
2019-03-11T19:16:39.993Z,24.60
2019-03-11T19:21:31.411Z,24.40
2019-03-11T19:26:25.159Z,24.40
2019-03-11T19:31:16.447Z,23.30
2019-03-11T19:36:07.767Z,23.70
2019-03-11T19:40:59.188Z,23.60
2019-03-11T19:45:52.767Z,24.80
2019-03-11T19:50:46.496Z,23.20
2019-03-11T19:55:38.276Z,24.60
2019-03-11T20:00:29.306Z,24.20
2019-03-11T20:05:20.878Z,24.90
2019-03-11T20:10:12.165Z,25.50
2019-03-11T20:15:03.777Z,26.10
2019-03-11T20:19:55.053Z,26.60
2019-03-11T20:24:46.525Z,26.40
2019-03-11T20:29:37.915Z,26.00
2019-03-11T20:34:29.198Z,27.50
2019-03-11T20:39:20.782Z,26.10
2019-03-11T20:44:12.027Z,26.20
2019-03-11T20:49:03.585Z,25.00
2019-03-11T20:53:54.848Z,25.90
2019-03-11T20:58:48.433Z,27.80
2019-03-11T21:03:40.015Z,27.60
2019-03-11T21:08:31.460Z,26.90
2019-03-11T21:13:22.746Z,26.40
2019-03-11T21:18:14.164Z,26.50
2019-03-11T21:23:05.501Z,27.30
2019-03-11T21:27:56.936Z,27.70
2019-03-11T21:32:48.730Z,28.70
2019-03-11T21:37:40.040Z,28.30
2019-03-11T21:42:31.043Z,29.00
2019-03-11T21:47:22.821Z,29.00
2019-03-11T21:52:13.786Z,29.30
2019-03-11T21:57:05.459Z,30.50
2019-03-11T22:06:48.116Z,31.90
2019-03-11T22:11:39.528Z,31.40
2019-03-11T22:16:30.949Z,31.20
2019-03-11T22:21:22.440Z,31.60
2019-03-11T22:31:10.633Z,33.10
2019-03-11T22:36:02.126Z,32.50
2019-03-11T22:40:53.601Z,32.10
2019-03-11T22:45:47.182Z,33.70
2019-03-11T22:50:38.636Z,32.80
2019-03-11T22:55:30.210Z,32.50
2019-03-11T23:00:21.366Z,34.60
2019-03-11T23:05:12.800Z,34.00
2019-03-11T23:10:04.149Z,35.00
2019-03-11T23:14:57.750Z,34.80
2019-03-11T23:19:49.258Z,33.10
2019-03-11T23:24:40.659Z,34.80
2019-03-11T23:29:32.006Z,33.90
2019-03-11T23:34:23.379Z,34.60
2019-03-11T23:39:17.067Z,35.80
2019-03-11T23:44:08.557Z,35.30
2019-03-11T23:49:02.203Z,36.30
2019-03-11T23:53:53.616Z,35.30
2019-03-11T23:58:44.972Z,36.70
